Time;durP1;ratioP1;P1;durP2;ratioP2;P2;SDS_P1;SDS_P2;PMS_P1;PMS_P2;Temp;Humidity;BMP_temperature;BMP_pressure;BME280_temperature;BME280_humidity;BME280_pressure;Samples;Min_cycle;Max_cycle;Signal;HPM_P1;HPM_P2
2024/04/12 00:02:04;;;;;;;;;;;8.40;99.90;;;7.40;100.00;99385.72;5437158;26;1763;-69
2024/04/12 00:04:35;;;;;;;;;;;8.40;99.90;;;7.35;100.00;99383.13;5435950;26;1782;-69
2024/04/12 00:07:13;;;;;;;;;;;8.30;99.90;;;7.20;100.00;99386.56;5438756;26;1816;-69
2024/04/12 00:09:42;;;;;;;;;;;8.20;99.90;;;7.14;100.00;99376.25;5433484;26;1782;-69
2024/04/12 00:12:11;;;;;;;;;;;8.20;99.90;;;7.07;100.00;99384.84;5430294;26;1848;-69
2024/04/12 00:14:43;;;;;;;;;;;8.10;99.90;;;7.04;100.00;99388.28;5433121;26;2286;-69
2024/04/12 00:17:15;;;;;;;;;;;8.10;99.90;;;7.09;100.00;99388.28;5432976;26;4183;-69
2024/04/12 00:19:45;;;;;;;;;;;8.10;99.90;;;6.93;100.00;99394.31;5437003;26;1782;-69
2024/04/12 00:22:14;;;;;;;;;;;8.00;99.90;;;6.94;100.00;99391.72;5434991;26;1770;-69
2024/04/12 00:24:41;;;;;;;;;;;7.90;99.90;;;6.86;100.00;99396.88;5434160;26;1879;-69
2024/04/12 00:27:09;;;;;;;;;;;7.90;99.90;;;6.85;100.00;99391.72;5435904;26;1574;-69
2024/04/12 00:29:36;;;;;;;;;;;8.00;99.90;;;6.96;100.00;99396.91;5434914;26;1849;-70
2024/04/12 00:32:13;;;;;;;;;;;8.10;99.90;;;7.01;100.00;99388.28;5434691;26;2524;-69
2024/04/12 00:34:47;;;;;;;;;;;8.10;99.90;;;7.20;100.00;99389.16;5435677;26;2648;-69
2024/04/12 00:37:16;;;;;;;;;;;8.20;99.90;;;7.09;100.00;99381.44;5434749;26;2651;-69
2024/04/12 00:39:48;;;;;;;;;;;8.20;99.90;;;7.11;100.00;99374.50;5434080;26;1744;-69
2024/04/12 00:42:25;;;;;;;;;;;8.10;99.90;;;6.97;100.00;99380.53;5435966;26;1888;-68
2024/04/12 00:44:58;;;;;;;;;;;8.10;99.90;;;6.94;100.00;99377.97;5433223;26;1890;-69
2024/04/12 00:47:27;;;;;;;;;;;8.10;99.90;;;7.11;100.00;99384.84;5436105;26;1843;-69
2024/04/12 00:49:56;;;;;;;;;;;8.20;99.90;;;7.15;100.00;99375.38;5436770;26;1471;-69
2024/04/12 00:52:27;;;;;;;;;;;8.20;99.90;;;7.12;100.00;99378.84;5428900;26;1859;-69
2024/04/12 00:55:03;;;;;;;;;;;8.20;99.90;;;7.13;100.00;99371.94;5434206;26;1875;-69
2024/04/12 00:57:35;;;;;;;;;;;8.10;99.90;;;6.97;100.00;99370.22;5432633;26;1775;-69
2024/04/12 01:00:12;;;;;;;;;;;8.00;99.90;;;6.97;100.00;99373.66;5434400;26;1871;-69
2024/04/12 01:02:42;;;;;;;;;;;8.00;99.90;;;6.91;100.00;99371.06;5430586;26;1709;-70
2024/04/12 01:05:14;;;;;;;;;;;7.90;99.90;;;6.98;100.00;99375.41;5428892;26;3981;-69
2024/04/12 01:07:48;;;;;;;;;;;7.90;99.90;;;6.98;100.00;99374.50;5432192;26;1900;-69
2024/04/12 01:10:25;;;;;;;;;;;7.90;99.90;;;6.80;100.00;99373.66;5434180;26;1875;-69
2024/04/12 01:12:56;;;;;;;;;;;7.80;99.90;;;6.85;100.00;99371.06;5416482;26;1943;-69
2024/04/12 01:15:29;;;;;;;;;;;7.80;99.90;;;6.83;100.00;99370.22;5433082;26;1907;-69
2024/04/12 01:17:56;;;;;;;;;;;7.70;99.90;;;6.79;100.00;99378.81;5425773;26;2184;-70
2024/04/12 01:20:25;;;;;;;;;;;7.70;99.90;;;6.75;100.00;99377.94;5430109;26;2671;-69
2024/04/12 01:22:57;;;;;;;;;;;7.70;99.90;;;6.78;100.00;99377.09;5429131;26;1888;-69
2024/04/12 01:25:25;;;;;;;;;;;7.70;99.90;;;6.78;100.00;99382.25;5437801;26;1681;-70
2024/04/12 01:27:52;;;;;;;;;;;7.70;99.90;;;6.70;100.00;99377.06;5432156;26;1515;-70
2024/04/12 01:30:20;;;;;;;;;;;7.60;99.90;;;6.59;100.00;99381.34;5433885;26;1460;-70
2024/04/12 01:32:50;;;;;;;;;;;7.50;99.90;;;6.59;100.00;99379.63;5433897;26;1853;-70
2024/04/12 01:35:18;;;;;;;;;;;7.50;99.90;;;6.39;100.00;99381.31;5437030;26;2115;-69
2024/04/12 01:37:45;;;;;;;;;;;7.40;99.90;;;6.49;100.00;99383.88;5430475;26;1546;-70
2024/04/12 01:40:12;;;;;;;;;;;7.40;99.90;;;6.43;100.00;99380.44;5434731;26;1878;-69
2024/04/12 01:42:43;;;;;;;;;;;7.40;99.90;;;6.33;100.00;99391.59;5432002;26;1383;-70
2024/04/12 01:45:13;;;;;;;;;;;7.40;99.90;;;6.19;100.00;99394.97;5432672;26;1770;-69
2024/04/12 01:47:45;;;;;;;;;;;7.30;99.90;;;6.16;100.00;99394.06;5436902;26;3804;-70
2024/04/12 01:50:13;;;;;;;;;;;7.30;99.90;;;6.27;100.00;99390.72;5434758;26;1690;-70
2024/04/12 01:52:54;;;;;;;;;;;7.30;99.90;;;6.32;100.00;99393.31;5432293;26;1948;-69
2024/04/12 01:55:24;;;;;;;;;;;7.20;99.90;;;6.24;100.00;99401.00;5434046;26;1435;-69
2024/04/12 01:57:55;;;;;;;;;;;7.30;99.90;;;6.39;100.00;99395.06;5433776;26;1543;-69
2024/04/12 02:00:24;;;;;;;;;;;7.40;99.90;;;6.57;100.00;99395.94;5435570;26;1558;-69
2024/04/12 02:02:52;;;;;;;;;;;7.50;99.90;;;6.66;100.00;99393.38;5437264;26;2111;-69
2024/04/12 02:05:29;;;;;;;;;;;7.60;99.90;;;6.50;100.00;99397.69;5431531;26;3043;-69
2024/04/12 02:07:56;;;;;;;;;;;7.70;99.90;;;6.27;100.00;99400.16;5434085;26;1546;-69
2024/04/12 02:10:23;;;;;;;;;;;7.60;99.90;;;6.32;100.00;99398.47;5432235;26;1360;-69
2024/04/12 02:12:53;;;;;;;;;;;7.60;99.90;;;6.47;100.00;99400.22;5431917;26;1861;-69
2024/04/12 02:15:25;;;;;;;;;;;7.60;99.90;;;6.37;100.00;99398.50;5431834;26;1460;-69
2024/04/12 02:17:58;;;;;;;;;;;7.60;99.90;;;6.23;100.00;99404.44;5430034;26;2167;-69
2024/04/12 02:20:35;;;;;;;;;;;7.50;99.90;;;6.23;100.00;99407.03;5431318;26;1543;-69
2024/04/12 02:23:07;;;;;;;;;;;7.50;99.90;;;6.48;100.00;99407.13;5429348;26;1479;-69
2024/04/12 02:25:35;;;;;;;;;;;7.50;99.90;;;6.39;100.00;99407.09;5432532;26;1578;-69
2024/04/12 02:28:08;;;;;;;;;;;7.60;99.90;;;6.43;100.00;99413.97;5431354;26;1486;-69
2024/04/12 02:30:45;;;;;;;;;;;7.60;99.90;;;6.36;100.00;99414.81;5438643;26;1476;-69
2024/04/12 02:33:16;;;;;;;;;;;7.60;99.90;;;6.45;100.00;99409.69;5432185;26;3930;-69
2024/04/12 02:35:45;;;;;;;;;;;7.60;99.90;;;6.43;100.00;99414.84;5434143;26;2691;-69
2024/04/12 02:38:20;;;;;;;;;;;7.60;99.90;;;6.41;100.00;99407.94;5433250;26;2710;-69
2024/04/12 02:40:48;;;;;;;;;;;7.60;99.90;;;6.35;100.00;99413.94;5425996;26;1419;-69
2024/04/12 02:43:16;;;;;;;;;;;7.60;99.90;;;6.42;100.00;99404.50;5433734;26;1468;-70
2024/04/12 02:45:50;;;;;;;;;;;7.50;99.90;;;6.44;100.00;99405.38;5436061;26;1461;-70
2024/04/12 02:48:19;;;;;;;;;;;7.50;99.90;;;6.19;100.00;99410.44;5434104;26;1377;-70
2024/04/12 02:50:48;;;;;;;;;;;7.40;99.90;;;6.34;100.00;99406.19;5434147;26;1438;-70
2024/04/12 02:53:18;;;;;;;;;;;7.40;99.90;;;6.39;100.00;99401.94;5431096;26;1888;-69
2024/04/12 02:55:47;;;;;;;;;;;7.30;99.90;;;6.23;100.00;99404.44;5433009;26;1396;-70
2024/04/12 02:58:14;;;;;;;;;;;7.40;99.90;;;6.36;100.00;99399.31;5432683;26;1476;-70
2024/04/12 03:00:41;;;;;;;;;;;7.40;99.90;;;6.33;100.00;99407.06;5400256;26;1468;-69
2024/04/12 03:03:07;;;;;;;;;;;7.30;99.90;;;6.25;100.00;99410.47;5431608;26;2021;-69
2024/04/12 03:05:34;;;;;;;;;;;7.30;99.90;;;6.45;100.00;99396.78;5431581;26;2419;-68
2024/04/12 03:08:02;;;;;;;;;;;7.40;99.90;;;6.40;100.00;99409.66;5430359;26;1621;-69
2024/04/12 03:10:32;;;;;;;;;;;7.40;99.90;;;6.26;100.00;99422.50;5428815;26;1566;-69
2024/04/12 03:13:00;;;;;;;;;;;7.30;99.90;;;6.38;100.00;99413.94;5427299;26;1841;-69
2024/04/12 03:15:27;;;;;;;;;;;7.30;99.90;;;6.48;100.00;99413.13;5427867;26;1574;-69
2024/04/12 03:17:54;;;;;;;;;;;7.40;99.90;;;6.53;100.00;99412.28;5435259;26;3714;-69
2024/04/12 03:20:22;;;;;;;;;;;7.50;99.90;;;6.58;100.00;99408.84;5433566;26;3010;-69
2024/04/12 03:22:48;;;;;;;;;;;7.60;99.90;;;6.56;100.00;99404.56;5435246;26;1398;-69
2024/04/12 03:25:15;;;;;;;;;;;7.60;99.90;;;6.58;100.00;99401.13;5433980;26;1531;-69
2024/04/12 03:27:43;;;;;;;;;;;7.70;99.90;;;6.64;100.00;99397.72;5430932;26;1383;-69
2024/04/12 03:30:16;;;;;;;;;;;7.70;99.90;;;6.53;100.00;99389.09;5431682;26;1483;-69
2024/04/12 03:32:44;;;;;;;;;;;7.70;99.90;;;6.42;100.00;99383.88;5433606;26;2250;-69
2024/04/12 03:35:20;;;;;;;;;;;7.50;99.90;;;6.38;100.00;99388.16;5433142;26;1454;-69
2024/04/12 03:38:24;;;;;;;;;;;7.30;99.90;;;6.16;100.00;99401.81;5435565;26;1428;-69
2024/04/12 03:40:33;;;;;;;;;;;7.10;99.90;;;5.91;100.00;99408.53;5434100;26;1889;-69
2024/04/12 03:43:03;;;;;;;;;;;7.00;99.90;;;5.84;100.00;99418.81;5430135;26;1368;-69
2024/04/12 03:45:35;;;;;;;;;;;6.90;99.90;;;5.73;100.00;99423.06;5433849;26;1492;-70
2024/04/12 03:48:13;;;;;;;;;;;6.90;99.90;;;5.85;100.00;99420.53;5433135;26;2235;-69
2024/04/12 03:50:41;;;;;;;;;;;6.90;99.90;;;5.93;100.00;99418.03;5433732;26;1661;-69
2024/04/12 03:53:14;;;;;;;;;;;7.00;99.90;;;5.83;100.00;99423.97;5433601;26;1887;-69
2024/04/12 03:55:44;;;;;;;;;;;7.00;99.90;;;5.64;100.00;99429.00;5429203;26;1439;-69
2024/04/12 03:58:17;;;;;;;;;;;6.90;99.90;;;5.79;100.00;99430.84;5425863;26;1331;-69
2024/04/12 04:00:48;;;;;;;;;;;6.90;99.90;;;5.69;100.00;99436.75;5433727;26;1386;-69
2024/04/12 04:03:30;;;;;;;;;;;7.00;99.90;;;5.67;100.00;99435.88;5430798;26;1472;-69
2024/04/12 04:06:11;;;;;;;;;;;6.90;99.90;;;5.64;100.00;99431.56;5428758;26;1447;-69
2024/04/12 04:08:48;;;;;;;;;;;6.80;99.90;;;5.52;100.00;99430.63;5403457;26;1412;-69
2024/04/12 04:11:16;;;;;;;;;;;6.70;99.90;;;5.49;100.00;99428.03;5434497;26;1356;-69
2024/04/12 04:13:47;;;;;;;;;;;6.60;99.90;;;5.49;100.00;99430.59;5429675;26;1837;-69
2024/04/12 04:16:16;;;;;;;;;;;6.50;99.90;;;5.45;100.00;99427.13;5432048;26;1486;-69
2024/04/12 04:18:49;;;;;;;;;;;6.40;99.90;;;5.30;100.00;99430.47;5431521;26;2685;-69
2024/04/12 04:21:16;;;;;;;;;;;6.40;99.90;;;5.23;100.00;99434.69;5434066;26;1343;-69
2024/04/12 04:23:43;;;;;;;;;;;6.30;99.90;;;5.19;100.00;99429.50;5433265;26;1401;-69
2024/04/12 04:26:10;;;;;;;;;;;6.20;99.90;;;5.13;100.00;99437.16;5429762;26;1381;-69
2024/04/12 04:28:38;;;;;;;;;;;6.20;99.90;;;5.20;100.00;99444.09;5428574;26;1389;-69
2024/04/12 04:31:07;;;;;;;;;;;6.10;99.90;;;5.18;100.00;99446.66;5430874;26;2104;-69
2024/04/12 04:33:38;;;;;;;;;;;6.00;99.90;;;5.12;100.00;99464.63;5435003;26;1888;-69
2024/04/12 04:36:11;;;;;;;;;;;6.10;99.90;;;5.16;100.00;99462.94;5432144;26;1481;-69
2024/04/12 04:38:38;;;;;;;;;;;6.10;99.90;;;5.34;100.00;99463.13;5433722;26;1810;-69
2024/04/12 04:41:06;;;;;;;;;;;6.20;99.90;;;5.48;100.00;99464.94;5438413;26;1349;-69
2024/04/12 04:43:36;;;;;;;;;;;6.30;99.90;;;5.49;100.00;99464.09;5433922;26;1472;-69
2024/04/12 04:46:26;;;;;;;;;;;6.50;99.90;;;5.65;100.00;99458.19;5434357;26;1423;-69
2024/04/12 04:48:50;;;;;;;;;;;6.60;99.90;;;5.73;100.00;99450.53;5434893;26;3773;-69
2024/04/12 04:51:18;;;;;;;;;;;6.70;99.90;;;5.80;100.00;99452.31;5430554;26;1472;-69
2024/04/12 04:53:44;;;;;;;;;;;6.80;99.90;;;5.91;100.00;99448.09;5435257;26;1861;-69
2024/04/12 04:56:24;;;;;;;;;;;6.80;99.90;;;5.84;100.00;99431.72;5431712;26;1391;-69
2024/04/12 04:58:51;;;;;;;;;;;6.90;99.90;;;5.61;100.00;99438.41;5428742;26;1382;-69
2024/04/12 05:01:19;;;;;;;;;;;6.70;99.90;;;5.56;100.00;99447.81;5431975;26;2443;-69
2024/04/12 05:03:49;;;;;;;;;;;6.70;99.90;;;5.54;100.00;99436.63;5427637;26;1528;-69
2024/04/12 05:06:24;;;;;;;;;;;6.70;99.90;;;5.53;100.00;99447.81;5433062;26;1361;-69
2024/04/12 05:08:52;;;;;;;;;;;6.70;99.90;;;5.43;100.00;99452.88;5430272;26;1458;-69
2024/04/12 05:11:20;;;;;;;;;;;6.50;99.90;;;5.54;100.00;99454.69;5423859;26;1617;-68
2024/04/12 05:13:55;;;;;;;;;;;6.60;99.90;;;5.24;100.00;99463.88;5426846;26;1830;-69
2024/04/12 05:16:22;;;;;;;;;;;6.50;99.90;;;5.14;100.00;99475.81;5435871;26;2757;-69
2024/04/12 05:18:49;;;;;;;;;;;6.40;99.90;;;5.44;100.00;99475.19;5431163;26;1595;-69
2024/04/12 05:21:16;;;;;;;;;;;6.50;99.90;;;5.60;100.00;99475.34;5429730;26;1486;-69
2024/04/12 05:23:44;;;;;;;;;;;6.60;99.90;;;5.52;100.00;99479.56;5429939;26;1409;-69
2024/04/12 05:26:11;;;;;;;;;;;6.60;99.90;;;5.56;100.00;99468.44;5433279;26;1451;-69
2024/04/12 05:28:37;;;;;;;;;;;6.60;99.90;;;5.56;100.00;99473.59;5437486;26;1303;-69
2024/04/12 05:31:11;;;;;;;;;;;6.50;99.90;;;5.51;100.00;99478.69;5431103;26;3935;-69
2024/04/12 05:33:42;;;;;;;;;;;6.50;99.90;;;5.77;100.00;99478.91;5432603;26;2255;-69
2024/04/12 05:36:10;;;;;;;;;;;6.70;99.90;;;5.86;100.00;99468.66;5432073;26;1395;-69
2024/04/12 05:38:38;;;;;;;;;;;6.70;99.90;;;5.89;100.00;99460.09;5440372;26;1229;-69
2024/04/12 05:41:05;;;;;;;;;;;6.70;99.90;;;5.89;100.00;99454.09;5420926;26;1076;-69
2024/04/12 05:43:32;;;;;;;;;;;6.70;99.90;;;5.79;100.00;99459.19;5441067;26;1180;-69
2024/04/12 05:46:00;;;;;;;;;;;6.70;99.90;;;5.76;100.00;99466.00;5429728;26;2767;-69
2024/04/12 05:48:27;;;;;;;;;;;6.80;99.90;;;6.04;100.00;99467.06;5433075;26;1199;-69
2024/04/12 05:50:55;;;;;;;;;;;6.80;99.90;;;6.21;100.00;99464.59;5429205;26;1182;-69
2024/04/12 05:53:24;;;;;;;;;;;6.90;99.90;;;6.23;100.00;99466.34;5425132;26;1882;-69
2024/04/12 05:56:20;;;;;;;;;;;7.00;99.90;;;6.40;100.00;99468.97;5425969;26;1277;-69
2024/04/12 05:58:40;;;;;;;;;;;7.20;99.90;;;6.52;100.00;99460.44;5428561;26;2237;-69
2024/04/12 06:01:07;;;;;;;;;;;7.30;99.90;;;6.77;100.00;99448.47;5430372;26;1446;-69
2024/04/12 06:03:42;;;;;;;;;;;7.40;99.90;;;6.91;100.00;99451.09;5427658;26;1208;-69
2024/04/12 06:06:12;;;;;;;;;;;7.60;99.90;;;7.23;100.00;99442.53;5425408;26;1294;-69
2024/04/12 06:08:41;;;;;;;;;;;7.70;99.90;;;7.27;100.00;99460.59;5429381;26;1293;-69
2024/04/12 06:11:09;;;;;;;;;;;7.90;99.90;;;7.35;100.00;99460.63;5427624;26;1296;-69
2024/04/12 06:13:38;;;;;;;;;;;8.00;99.90;;;7.65;100.00;99466.66;5423733;26;3913;-69
2024/04/12 06:16:05;;;;;;;;;;;8.20;99.90;;;8.03;100.00;99452.81;5432587;26;1195;-69
2024/04/12 06:18:32;;;;;;;;;;;8.40;99.90;;;8.00;100.00;99447.66;5429176;26;1525;-69
2024/04/12 06:21:04;;;;;;;;;;;8.50;99.90;;;8.11;100.00;99451.06;5429409;26;1424;-69
2024/04/12 06:23:33;;;;;;;;;;;8.70;99.90;;;8.25;100.00;99451.88;5429841;26;1567;-69
2024/04/12 06:26:00;;;;;;;;;;;8.80;99.90;;;8.50;100.00;99450.09;5425834;26;1578;-69
2024/04/12 06:28:30;;;;;;;;;;;8.90;99.90;;;8.95;100.00;99434.34;5432078;26;2232;-68
2024/04/12 06:30:59;;;;;;;;;;;9.00;99.90;;;9.05;100.00;99417.00;5428537;26;1579;-68
2024/04/12 06:33:28;;;;;;;;;;;9.30;99.90;;;9.37;100.00;99420.22;5432252;26;1833;-69
2024/04/12 06:36:04;;;;;;;;;;;9.40;99.90;;;8.97;100.00;99415.34;5426739;26;1372;-69
2024/04/12 06:38:33;;;;;;;;;;;9.50;99.90;;;9.31;100.00;99412.50;5437780;26;2241;-69
2024/04/12 06:41:01;;;;;;;;;;;9.70;99.90;;;9.79;100.00;99397.38;5437513;26;2647;-69
2024/04/12 06:43:28;;;;;;;;;;;9.90;99.90;;;10.12;100.00;99402.19;5424655;26;2753;-69
2024/04/12 06:45:58;;;;;;;;;;;10.20;99.90;;;10.36;100.00;99396.75;5424144;26;1360;-70
2024/04/12 06:48:26;;;;;;;;;;;10.40;99.90;;;10.57;100.00;99385.22;5428667;26;1164;-69
2024/04/12 06:50:54;;;;;;;;;;;10.70;99.90;;;10.95;100.00;99385.53;5422742;26;1371;-70
2024/04/12 06:53:24;;;;;;;;;;;10.90;99.90;;;11.05;100.00;99394.94;5423410;26;2128;-70
2024/04/12 06:56:06;;;;;;;;;;;11.10;99.90;;;11.46;100.00;99404.66;5425814;26;1345;-70
2024/04/12 06:58:33;;;;;;;;;;;11.40;99.90;;;11.79;100.00;99391.06;5421386;26;1243;-70
2024/04/12 07:01:05;;;;;;;;;;;11.80;99.90;;;12.03;100.00;99390.63;5426712;26;1084;-68
2024/04/12 07:03:34;;;;;;;;;;;12.00;99.90;;;12.40;100.00;99391.66;5429014;26;1566;-70
2024/04/12 07:06:01;;;;;;;;;;;12.20;99.90;;;12.75;100.00;99390.91;5424189;26;1272;-70
2024/04/12 07:08:29;;;;;;;;;;;12.50;99.90;;;12.91;100.00;99396.63;5424832;26;4176;-70
2024/04/12 07:10:56;;;;;;;;;;;12.80;99.90;;;13.04;100.00;99391.97;5421000;26;1295;-69
2024/04/12 07:13:26;;;;;;;;;;;13.10;99.90;;;13.15;100.00;99392.56;5420493;26;1837;-69
2024/04/12 07:16:01;;;;;;;;;;;13.30;99.90;;;13.49;100.00;99386.56;5423361;26;2745;-70
2024/04/12 07:18:29;;;;;;;;;;;13.50;99.90;;;13.60;100.00;99382.75;5428058;26;2762;-70
2024/04/12 07:21:14;;;;;;;;;;;13.70;99.90;;;13.44;100.00;99389.28;5426486;26;1079;-69
2024/04/12 07:23:48;;;;;;;;;;;13.80;99.90;;;13.82;100.00;99390.00;5426905;26;1337;-69
2024/04/12 07:26:24;;;;;;;;;;;14.00;99.90;;;13.84;100.00;99388.22;5424210;26;1306;-69
2024/04/12 07:28:59;;;;;;;;;;;14.20;99.90;;;14.05;100.00;99385.94;5427469;26;2243;-69
2024/04/12 07:31:31;;;;;;;;;;;14.30;99.90;;;14.09;100.00;99383.19;5424246;26;1071;-69
2024/04/12 07:34:01;;;;;;;;;;;14.30;99.90;;;14.31;100.00;99374.75;5422000;26;3018;-69
2024/04/12 07:36:32;;;;;;;;;;;14.50;99.90;;;14.43;100.00;99367.41;5427036;26;1284;-69
2024/04/12 07:39:03;;;;;;;;;;;14.70;99.90;;;14.63;100.00;99358.16;5424235;26;1157;-69
2024/04/12 07:41:43;;;;;;;;;;;14.90;99.90;;;14.88;100.00;99360.00;5429094;26;1276;-69
2024/04/12 07:44:14;;;;;;;;;;;15.00;99.90;;;14.88;100.00;99354.78;5427793;26;1211;-69
2024/04/12 07:46:51;;;;;;;;;;;15.10;99.90;;;14.88;100.00;99355.63;5438546;26;3898;-69
2024/04/12 07:49:19;;;;;;;;;;;15.30;99.90;;;14.89;100.00;99356.47;5430588;26;2699;-69
2024/04/12 07:51:47;;;;;;;;;;;15.30;99.90;;;14.82;100.00;99350.56;5428732;26;1160;-68
2024/04/12 07:54:15;;;;;;;;;;;15.30;99.90;;;14.78;100.00;99359.41;5435826;26;1853;-69
2024/04/12 07:56:57;;;;;;;;;;;15.40;99.90;;;15.14;100.00;99352.16;5430508;26;1305;-69
2024/04/12 07:59:26;;;;;;;;;;;15.60;99.90;;;14.99;100.00;99361.38;5424668;26;1272;-69
2024/04/12 08:01:57;;;;;;;;;;;15.60;99.90;;;15.13;100.00;99365.31;5424184;26;2267;-69
2024/04/12 08:04:36;;;;;;;;;;;15.70;99.90;;;15.26;100.00;99350.91;5426938;26;1183;-69
2024/04/12 08:07:13;;;;;;;;;;;15.70;99.90;;;15.57;100.00;99345.47;5421909;26;1286;-69
2024/04/12 08:09:44;;;;;;;;;;;15.70;99.90;;;15.75;100.00;99349.25;5431392;26;1075;-69
2024/04/12 08:12:17;;;;;;;;;;;15.70;99.90;;;16.35;100.00;99333.09;5427319;26;1320;-69
2024/04/12 08:15:06;;;;;;;;;;;15.90;99.90;;;16.86;100.00;99313.66;5424964;26;1883;-69
2024/04/12 08:17:40;;;;;;;;;;;16.20;99.90;;;16.82;100.00;99302.44;5431114;26;2136;-69
2024/04/12 08:20:14;;;;;;;;;;;;;;;16.82;100.00;99291.94;5424714;26;1720;-69
2024/04/12 08:22:44;;;;;;;;;;;16.90;99.90;;;17.14;100.00;99298.47;5431990;26;1149;-69
2024/04/12 08:25:18;;;;;;;;;;;17.20;99.90;;;16.68;100.00;99302.97;5426939;26;1284;-69
2024/04/12 08:27:46;;;;;;;;;;;17.10;99.90;;;16.67;100.00;99303.88;5429886;26;1308;-69
2024/04/12 08:30:13;;;;;;;;;;;17.40;99.90;;;17.89;100.00;99293.53;5427937;26;3844;-69
2024/04/12 08:32:48;;;;;;;;;;;18.20;99.90;;;18.98;100.00;99268.22;5423326;26;2675;-69
2024/04/12 08:35:19;;;;;;;;;;;19.40;99.90;;;18.57;100.00;99262.34;5426894;26;1880;-70
2024/04/12 08:37:48;;;;;;;;;;;20.20;99.90;;;19.36;100.00;99261.94;5425342;26;1079;-69
2024/04/12 08:40:21;;;;;;;;;;;21.00;99.90;;;18.35;100.00;99252.00;5431122;26;1347;-69
2024/04/12 08:42:48;;;;;;;;;;;20.90;99.90;;;17.93;100.00;99267.06;5420837;26;1404;-69
2024/04/12 08:45:18;;;;;;;;;;;20.30;99.90;;;17.75;100.00;99268.72;5425746;26;1269;-69
2024/04/12 08:48:02;;;;;;;;;;;19.50;99.90;;;16.97;100.00;99286.97;5407652;26;2093;-68
2024/04/12 08:50:31;;;;;;;;;;;18.80;99.90;;;17.31;100.00;99279.41;5435131;26;1286;-70
2024/04/12 08:53:04;;;;;;;;;;;18.70;99.90;;;17.88;100.00;99276.94;5425873;26;1178;-69
2024/04/12 08:55:33;;;;;;;;;;;18.60;99.90;;;17.29;100.00;99278.63;5426043;26;1887;-69
2024/04/12 08:58:06;;;;;;;;;;;18.30;99.90;;;17.64;100.00;99289.34;5426289;26;1095;-69
2024/04/12 09:00:34;;;;;;;;;;;17.90;99.90;;;18.30;100.00;99283.75;5428689;26;1171;-69
2024/04/12 09:03:10;;;;;;;;;;;18.40;99.90;;;19.65;100.00;99255.13;5426766;26;1570;-69
2024/04/12 09:05:40;;;;;;;;;;;19.80;99.90;;;19.05;100.00;99247.72;5423908;26;1371;-68
2024/04/12 09:08:07;;;;;;;;;;;20.30;99.90;;;17.60;100.00;99274.66;5423531;26;1092;-70
2024/04/12 09:10:35;;;;;;;;;;;18.30;99.90;;;16.82;100.00;99296.34;5436723;26;1349;-69
2024/04/12 09:13:14;;;;;;;;;;;17.80;99.90;;;16.92;100.00;99300.28;5425613;26;1095;-69
2024/04/12 09:15:45;;;;;;;;;;;17.80;99.90;;;17.30;100.00;99303.09;5427335;26;3985;-69
2024/04/12 09:18:14;;;;;;;;;;;17.70;99.90;;;17.88;100.00;99299.72;5433885;26;1322;-69
2024/04/12 09:20:52;;;;;;;;;;;18.20;99.90;;;17.37;100.00;99299.28;5433160;26;1360;-69
2024/04/12 09:23:32;;;;;;;;;;;18.60;99.90;;;17.15;100.00;99304.56;5432841;26;1395;-69
2024/04/12 09:26:00;;;;;;;;;;;18.50;99.90;;;17.12;100.00;99308.19;5428417;26;1418;-69
2024/04/12 09:28:37;;;;;;;;;;;18.20;99.90;;;17.00;100.00;99302.59;5424962;26;2171;-69
2024/04/12 09:33:56;;;;;;;;;;;17.80;99.90;;;17.00;100.00;99298.22;5427942;26;1868;-69
2024/04/12 09:36:44;;;;;;;;;;;17.80;99.90;;;17.52;100.00;99292.53;5433020;26;1665;-69
2024/04/12 09:39:14;;;;;;;;;;;17.90;99.90;;;17.60;100.00;99279.06;5412527;26;1188;-69
2024/04/12 09:41:53;;;;;;;;;;;18.20;99.90;;;18.06;100.00;99285.72;5422968;26;1142;-70
2024/04/12 09:44:48;;;;;;;;;;;18.60;99.90;;;17.61;100.00;99284.25;5425824;26;2257;-69
2024/04/12 10:37:28;;;;;;;;;;;20.30;99.90;;;20.03;100.00;99224.13;5425061;26;1295;-70
2024/04/12 10:39:59;;;;;;;;;;;19.60;99.90;;;19.49;100.00;99235.81;5423800;26;1051;-70
2024/04/12 10:42:26;;;;;;;;;;;19.80;99.90;;;18.98;100.00;99241.91;5425020;26;1537;-69
2024/04/12 10:44:56;;;;;;;;;;;19.70;99.90;;;18.58;100.00;99248.25;5429440;26;1223;-70
2024/04/12 10:47:23;;;;;;;;;;;19.50;99.90;;;18.17;100.00;99251.06;5423308;26;3777;-70
2024/04/12 10:49:51;;;;;;;;;;;19.20;99.90;;;18.24;100.00;99254.28;5428665;26;1193;-70
2024/04/12 10:52:28;;;;;;;;;;;19.10;99.90;;;18.33;100.00;99252.06;5425061;26;1064;-70
2024/04/12 10:54:59;;;;;;;;;;;18.90;99.90;;;18.08;100.00;99257.59;5404073;26;1849;-69
2024/04/12 10:57:30;;;;;;;;;;;19.00;99.90;;;18.14;100.00;99251.22;5424830;26;1092;-69
2024/04/12 11:00:00;;;;;;;;;;;18.90;99.90;;;18.39;100.00;99245.66;5425365;26;1128;-70
2024/04/12 11:02:28;;;;;;;;;;;18.60;99.90;;;18.82;100.00;99243.59;5423551;26;1562;-70
2024/04/12 11:07:54;;;;;;;;;;;19.00;99.90;;;18.82;100.00;99246.25;5437964;26;1472;-69
2024/04/12 11:10:37;;;;;;;;;;;19.20;99.90;;;18.97;100.00;99252.50;5425196;26;1345;-70
2024/04/12 11:13:06;;;;;;;;;;;19.40;99.90;;;18.66;100.00;99246.13;5428043;26;1182;-69
2024/04/12 11:32:23;;;;;;;;;;;19.90;99.90;;;19.23;100.00;99216.97;5438011;26;1091;-70
2024/04/12 11:34:51;;;;;;;;;;;19.90;99.90;;;19.12;100.00;99222.78;5426900;26;1841;-70
2024/04/12 11:37:22;;;;;;;;;;;19.80;99.90;;;19.23;100.00;99222.22;5427499;26;1122;-69
2024/04/12 11:39:52;;;;;;;;;;;19.80;99.90;;;18.78;100.00;99227.13;5443880;26;1366;-69
2024/04/12 11:42:19;;;;;;;;;;;19.70;99.90;;;19.07;100.00;99226.56;5436016;26;1236;-70
2024/04/12 11:44:53;;;;;;;;;;;19.70;99.90;;;19.11;100.00;99228.13;5423106;26;2583;-70
2024/04/12 11:47:23;;;;;;;;;;;19.80;99.90;;;19.61;100.00;99217.59;5401148;26;1438;-69
2024/04/12 11:49:57;;;;;;;;;;;19.90;99.90;;;20.04;100.00;99199.44;5431495;26;1441;-70
2024/04/12 11:52:25;;;;;;;;;;;20.20;99.90;;;20.17;100.00;99191.72;5428021;26;1403;-69
2024/04/12 11:54:58;;;;;;;;;;;20.30;99.90;;;19.88;100.00;99198.59;5433302;26;1873;-69
2024/04/12 11:57:27;;;;;;;;;;;20.40;99.90;;;20.42;100.00;99196.44;5435923;26;1416;-69
2024/04/12 11:59:58;;;;;;;;;;;20.70;99.90;;;20.10;100.00;99192.16;5430983;26;2167;-70
2024/04/12 12:02:27;;;;;;;;;;;19.90;99.90;;;19.30;100.00;99188.53;5429954;26;2159;-69
2024/04/12 12:04:56;;;;;;;;;;;19.60;99.90;;;19.43;100.00;99195.72;5432290;26;1798;-70
2024/04/12 12:07:23;;;;;;;;;;;19.60;99.90;;;19.62;100.00;99194.72;5430974;26;1428;-69
2024/04/12 12:09:50;;;;;;;;;;;19.80;99.90;;;19.81;100.00;99171.72;5431005;26;1635;-70
2024/04/12 12:12:21;;;;;;;;;;;19.70;99.90;;;20.13;100.00;99163.81;5427182;26;1669;-69
2024/04/12 12:14:52;;;;;;;;;;;19.80;99.90;;;19.26;100.00;99160.66;5430057;26;3751;-69
2024/04/12 12:17:19;;;;;;;;;;;20.00;99.90;;;19.48;100.00;99169.13;5434035;26;2519;-69
2024/04/12 12:19:51;;;;;;;;;;;20.10;99.90;;;19.57;100.00;99163.38;5405959;26;1588;-68
2024/04/12 12:22:21;;;;;;;;;;;19.60;99.90;;;19.98;100.00;99162.91;5428166;26;1499;-70
2024/04/12 12:24:49;;;;;;;;;;;19.80;99.90;;;19.99;100.00;99169.03;5435900;26;1372;-69
2024/04/12 12:27:19;;;;;;;;;;;20.00;99.90;;;19.23;100.00;99173.06;5431602;26;1390;-69
2024/04/12 12:29:53;;;;;;;;;;;20.30;99.90;;;19.76;100.00;99159.75;5429569;26;1324;-69
2024/04/12 12:32:26;;;;;;;;;;;20.10;99.90;;;20.45;100.00;99151.41;5428132;26;2509;-69
2024/04/12 12:34:54;;;;;;;;;;;20.20;99.90;;;20.06;100.00;99150.13;5433243;26;1884;-69
2024/04/12 12:37:24;;;;;;;;;;;20.30;99.90;;;19.23;100.00;99153.78;5429740;26;1368;-69
2024/04/12 12:39:51;;;;;;;;;;;20.30;99.90;;;19.27;100.00;99157.09;5430436;26;1586;-70
2024/04/12 12:42:19;;;;;;;;;;;20.00;99.90;;;19.43;100.00;99150.06;5433169;26;1552;-69
2024/04/12 12:44:46;;;;;;;;;;;19.90;99.90;;;19.21;100.00;99155.66;5426732;26;1400;-69
2024/04/12 12:47:15;;;;;;;;;;;19.90;99.90;;;19.46;100.00;99155.19;5430552;26;2119;-70
2024/04/12 12:49:50;;;;;;;;;;;19.90;99.90;;;19.62;100.00;99153.41;5432538;26;1583;-70
2024/04/12 12:52:17;;;;;;;;;;;20.00;99.90;;;20.12;100.00;99140.19;5429968;26;2010;-69
2024/04/12 12:54:47;;;;;;;;;;;20.00;99.90;;;19.90;100.00;99143.19;5429903;26;1845;-70
2024/04/12 12:57:17;;;;;;;;;;;20.20;99.90;;;20.37;100.00;99140.47;5428411;26;1582;-69